sensor_id;sensor_type;location;lat;lon;timestamp;P1;durP1;ratioP1;P2;durP2;ratioP2
10731;SDS011;74907;42.812;23.216;2023-12-29T00:00:35;47.03;;;33.43;;
10731;SDS011;74907;42.812;23.216;2023-12-29T00:03:04;50.53;;;32.80;;
10731;SDS011;74907;42.812;23.216;2023-12-29T00:05:33;48.40;;;32.83;;
10731;SDS011;74907;42.812;23.216;2023-12-29T00:08:06;46.17;;;31.57;;
10731;SDS011;74907;42.812;23.216;2023-12-29T00:10:34;43.77;;;32.23;;
10731;SDS011;74907;42.812;23.216;2023-12-29T00:13:07;46.80;;;31.93;;
10731;SDS011;74907;42.812;23.216;2023-12-29T00:15:34;48.97;;;33.30;;
10731;SDS011;74907;42.812;23.216;2023-12-29T00:18:03;66.70;;;44.37;;
10731;SDS011;74907;42.812;23.216;2023-12-29T00:20:30;65.57;;;43.43;;
10731;SDS011;74907;42.812;23.216;2023-12-29T00:25:54;42.43;;;31.30;;
10731;SDS011;74907;42.812;23.216;2023-12-29T00:28:29;43.27;;;29.43;;
10731;SDS011;74907;42.812;23.216;2023-12-29T00:31:00;72.43;;;43.80;;
10731;SDS011;74907;42.812;23.216;2023-12-29T00:33:29;67.07;;;42.27;;
10731;SDS011;74907;42.812;23.216;2023-12-29T00:35:57;72.73;;;42.20;;
10731;SDS011;74907;42.812;23.216;2023-12-29T00:38:26;69.97;;;42.03;;
10731;SDS011;74907;42.812;23.216;2023-12-29T00:40:55;76.67;;;44.70;;
10731;SDS011;74907;42.812;23.216;2023-12-29T00:43:22;95.43;;;49.73;;
10731;SDS011;74907;42.812;23.216;2023-12-29T00:45:52;93.40;;;48.77;;
10731;SDS011;74907;42.812;23.216;2023-12-29T00:48:19;98.47;;;49.70;;
10731;SDS011;74907;42.812;23.216;2023-12-29T00:50:51;104.37;;;50.43;;
10731;SDS011;74907;42.812;23.216;2023-12-29T00:53:19;106.33;;;50.73;;
10731;SDS011;74907;42.812;23.216;2023-12-29T00:55:46;105.40;;;50.90;;
10731;SDS011;74907;42.812;23.216;2023-12-29T00:58:15;94.87;;;48.33;;
10731;SDS011;74907;42.812;23.216;2023-12-29T01:00:42;83.30;;;45.63;;
10731;SDS011;74907;42.812;23.216;2023-12-29T01:03:14;69.00;;;40.23;;
10731;SDS011;74907;42.812;23.216;2023-12-29T01:05:42;63.13;;;37.40;;
10731;SDS011;74907;42.812;23.216;2023-12-29T01:08:09;54.33;;;35.43;;
10731;SDS011;74907;42.812;23.216;2023-12-29T01:10:37;57.13;;;34.93;;
10731;SDS011;74907;42.812;23.216;2023-12-29T01:13:07;52.13;;;34.53;;
10731;SDS011;74907;42.812;23.216;2023-12-29T01:15:34;48.97;;;33.30;;
10731;SDS011;74907;42.812;23.216;2023-12-29T01:18:04;49.17;;;33.57;;
10731;SDS011;74907;42.812;23.216;2023-12-29T01:20:34;50.30;;;33.57;;
10731;SDS011;74907;42.812;23.216;2023-12-29T01:25:52;43.70;;;30.97;;
10731;SDS011;74907;42.812;23.216;2023-12-29T01:31:41;34.20;;;24.13;;
10731;SDS011;74907;42.812;23.216;2023-12-29T01:34:08;33.17;;;23.23;;
10731;SDS011;74907;42.812;23.216;2023-12-29T01:36:38;38.53;;;25.00;;
10731;SDS011;74907;42.812;23.216;2023-12-29T01:39:05;46.43;;;26.57;;
10731;SDS011;74907;42.812;23.216;2023-12-29T01:41:32;39.13;;;25.17;;
10731;SDS011;74907;42.812;23.216;2023-12-29T01:47:21;32.23;;;24.30;;
10731;SDS011;74907;42.812;23.216;2023-12-29T01:49:48;35.00;;;23.60;;
10731;SDS011;74907;42.812;23.216;2023-12-29T01:52:17;29.50;;;20.70;;
10731;SDS011;74907;42.812;23.216;2023-12-29T01:54:46;27.50;;;20.30;;
10731;SDS011;74907;42.812;23.216;2023-12-29T01:57:15;29.00;;;20.37;;
10731;SDS011;74907;42.812;23.216;2023-12-29T01:59:43;28.60;;;19.60;;
10731;SDS011;74907;42.812;23.216;2023-12-29T02:02:12;25.93;;;19.57;;
10731;SDS011;74907;42.812;23.216;2023-12-29T02:04:40;25.53;;;19.43;;
10731;SDS011;74907;42.812;23.216;2023-12-29T02:10:31;25.83;;;18.93;;
10731;SDS011;74907;42.812;23.216;2023-12-29T02:16:21;24.03;;;18.43;;
10731;SDS011;74907;42.812;23.216;2023-12-29T02:18:54;26.93;;;19.83;;
10731;SDS011;74907;42.812;23.216;2023-12-29T02:21:26;26.93;;;19.37;;
10731;SDS011;74907;42.812;23.216;2023-12-29T02:23:53;27.47;;;18.93;;
10731;SDS011;74907;42.812;23.216;2023-12-29T02:26:22;29.17;;;20.63;;
10731;SDS011;74907;42.812;23.216;2023-12-29T02:28:55;26.80;;;19.33;;
10731;SDS011;74907;42.812;23.216;2023-12-29T02:31:26;27.43;;;20.37;;
10731;SDS011;74907;42.812;23.216;2023-12-29T02:33:57;26.93;;;21.60;;
10731;SDS011;74907;42.812;23.216;2023-12-29T02:36:27;28.60;;;21.67;;
10731;SDS011;74907;42.812;23.216;2023-12-29T02:38:54;29.20;;;21.47;;
10731;SDS011;74907;42.812;23.216;2023-12-29T02:41:24;29.80;;;21.40;;
10731;SDS011;74907;42.812;23.216;2023-12-29T02:43:51;32.77;;;21.23;;
10731;SDS011;74907;42.812;23.216;2023-12-29T02:46:19;28.07;;;22.50;;
10731;SDS011;74907;42.812;23.216;2023-12-29T02:48:45;32.33;;;21.57;;
10731;SDS011;74907;42.812;23.216;2023-12-29T02:51:12;28.73;;;21.87;;
10731;SDS011;74907;42.812;23.216;2023-12-29T02:53:39;31.50;;;22.40;;
10731;SDS011;74907;42.812;23.216;2023-12-29T02:56:08;27.43;;;20.47;;
10731;SDS011;74907;42.812;23.216;2023-12-29T02:58:36;29.43;;;20.83;;
10731;SDS011;74907;42.812;23.216;2023-12-29T03:01:04;26.63;;;21.30;;
10731;SDS011;74907;42.812;23.216;2023-12-29T03:03:31;29.10;;;22.13;;
10731;SDS011;74907;42.812;23.216;2023-12-29T03:05:58;28.17;;;20.93;;
10731;SDS011;74907;42.812;23.216;2023-12-29T03:08:25;29.57;;;21.37;;
10731;SDS011;74907;42.812;23.216;2023-12-29T03:10:52;31.37;;;21.80;;
10731;SDS011;74907;42.812;23.216;2023-12-29T03:13:19;29.80;;;22.17;;
10731;SDS011;74907;42.812;23.216;2023-12-29T03:15:48;31.13;;;21.53;;
10731;SDS011;74907;42.812;23.216;2023-12-29T03:18:15;30.93;;;20.87;;
10731;SDS011;74907;42.812;23.216;2023-12-29T03:20:42;29.50;;;21.07;;
10731;SDS011;74907;42.812;23.216;2023-12-29T03:23:08;26.80;;;20.00;;
10731;SDS011;74907;42.812;23.216;2023-12-29T03:25:35;31.17;;;19.87;;
10731;SDS011;74907;42.812;23.216;2023-12-29T03:28:02;23.37;;;20.13;;
10731;SDS011;74907;42.812;23.216;2023-12-29T03:30:29;25.00;;;19.37;;
10731;SDS011;74907;42.812;23.216;2023-12-29T03:32:58;26.27;;;19.57;;
10731;SDS011;74907;42.812;23.216;2023-12-29T03:35:25;24.47;;;18.77;;
10731;SDS011;74907;42.812;23.216;2023-12-29T03:37:52;23.03;;;18.43;;
10731;SDS011;74907;42.812;23.216;2023-12-29T03:40:18;25.20;;;18.93;;
10731;SDS011;74907;42.812;23.216;2023-12-29T03:42:45;25.07;;;17.93;;
10731;SDS011;74907;42.812;23.216;2023-12-29T03:45:12;27.07;;;18.77;;
10731;SDS011;74907;42.812;23.216;2023-12-29T03:47:39;24.30;;;18.90;;
10731;SDS011;74907;42.812;23.216;2023-12-29T03:50:08;27.67;;;19.67;;
10731;SDS011;74907;42.812;23.216;2023-12-29T03:52:35;26.87;;;19.47;;
10731;SDS011;74907;42.812;23.216;2023-12-29T03:55:02;31.80;;;20.57;;
10731;SDS011;74907;42.812;23.216;2023-12-29T03:57:30;32.80;;;21.20;;
10731;SDS011;74907;42.812;23.216;2023-12-29T03:59:56;32.67;;;21.50;;
10731;SDS011;74907;42.812;23.216;2023-12-29T04:02:23;30.60;;;21.03;;
10731;SDS011;74907;42.812;23.216;2023-12-29T04:04:50;41.60;;;20.97;;
10731;SDS011;74907;42.812;23.216;2023-12-29T04:07:18;36.40;;;22.90;;
10731;SDS011;74907;42.812;23.216;2023-12-29T04:09:45;44.03;;;24.80;;
10731;SDS011;74907;42.812;23.216;2023-12-29T04:12:12;43.73;;;25.67;;
10731;SDS011;74907;42.812;23.216;2023-12-29T04:14:39;50.40;;;27.43;;
10731;SDS011;74907;42.812;23.216;2023-12-29T04:17:06;53.47;;;29.37;;
10731;SDS011;74907;42.812;23.216;2023-12-29T04:19:39;62.33;;;30.20;;
10731;SDS011;74907;42.812;23.216;2023-12-29T04:22:06;64.93;;;32.10;;
10731;SDS011;74907;42.812;23.216;2023-12-29T04:24:36;53.33;;;31.60;;
10731;SDS011;74907;42.812;23.216;2023-12-29T04:27:04;65.30;;;33.63;;
10731;SDS011;74907;42.812;23.216;2023-12-29T04:29:31;64.60;;;32.40;;
10731;SDS011;74907;42.812;23.216;2023-12-29T04:31:58;64.23;;;30.93;;
10731;SDS011;74907;42.812;23.216;2023-12-29T04:34:31;80.03;;;32.13;;
10731;SDS011;74907;42.812;23.216;2023-12-29T04:36:58;64.10;;;30.60;;
10731;SDS011;74907;42.812;23.216;2023-12-29T04:39:25;69.40;;;32.83;;
10731;SDS011;74907;42.812;23.216;2023-12-29T04:41:53;70.30;;;31.40;;
10731;SDS011;74907;42.812;23.216;2023-12-29T04:44:20;77.87;;;31.97;;
10731;SDS011;74907;42.812;23.216;2023-12-29T04:46:47;83.90;;;34.53;;
10731;SDS011;74907;42.812;23.216;2023-12-29T04:49:14;72.00;;;33.77;;
10731;SDS011;74907;42.812;23.216;2023-12-29T04:51:41;78.07;;;34.77;;
10731;SDS011;74907;42.812;23.216;2023-12-29T04:54:08;60.27;;;32.13;;
10731;SDS011;74907;42.812;23.216;2023-12-29T04:56:34;59.40;;;33.43;;
10731;SDS011;74907;42.812;23.216;2023-12-29T04:59:03;60.70;;;34.87;;
10731;SDS011;74907;42.812;23.216;2023-12-29T05:01:30;61.80;;;35.63;;
10731;SDS011;74907;42.812;23.216;2023-12-29T05:04:05;53.43;;;33.63;;
10731;SDS011;74907;42.812;23.216;2023-12-29T05:06:32;44.80;;;31.33;;
10731;SDS011;74907;42.812;23.216;2023-12-29T05:08:59;52.27;;;30.77;;
10731;SDS011;74907;42.812;23.216;2023-12-29T05:11:26;53.50;;;32.87;;
10731;SDS011;74907;42.812;23.216;2023-12-29T05:13:53;62.07;;;34.97;;
10731;SDS011;74907;42.812;23.216;2023-12-29T05:16:21;61.03;;;34.43;;
10731;SDS011;74907;42.812;23.216;2023-12-29T05:18:48;60.77;;;33.33;;
10731;SDS011;74907;42.812;23.216;2023-12-29T05:21:15;66.90;;;36.97;;
10731;SDS011;74907;42.812;23.216;2023-12-29T05:23:43;69.03;;;37.87;;
10731;SDS011;74907;42.812;23.216;2023-12-29T05:26:10;68.83;;;42.37;;
10731;SDS011;74907;42.812;23.216;2023-12-29T05:28:37;68.13;;;43.73;;
10731;SDS011;74907;42.812;23.216;2023-12-29T05:31:04;71.17;;;41.63;;
10731;SDS011;74907;42.812;23.216;2023-12-29T05:33:33;61.60;;;39.47;;
10731;SDS011;74907;42.812;23.216;2023-12-29T05:36:05;57.33;;;36.17;;
10731;SDS011;74907;42.812;23.216;2023-12-29T05:38:33;60.40;;;36.37;;
10731;SDS011;74907;42.812;23.216;2023-12-29T05:41:00;63.33;;;35.03;;
10731;SDS011;74907;42.812;23.216;2023-12-29T05:43:30;62.53;;;37.63;;
10731;SDS011;74907;42.812;23.216;2023-12-29T05:45:58;69.30;;;38.90;;
10731;SDS011;74907;42.812;23.216;2023-12-29T05:48:25;68.80;;;38.87;;
10731;SDS011;74907;42.812;23.216;2023-12-29T05:50:53;74.13;;;41.17;;
10731;SDS011;74907;42.812;23.216;2023-12-29T05:53:20;69.97;;;41.80;;
10731;SDS011;74907;42.812;23.216;2023-12-29T05:55:47;77.77;;;44.20;;
10731;SDS011;74907;42.812;23.216;2023-12-29T05:58:14;71.60;;;41.93;;
10731;SDS011;74907;42.812;23.216;2023-12-29T06:00:41;62.53;;;38.90;;
10731;SDS011;74907;42.812;23.216;2023-12-29T06:03:09;54.87;;;35.13;;
10731;SDS011;74907;42.812;23.216;2023-12-29T06:05:37;57.10;;;34.57;;
10731;SDS011;74907;42.812;23.216;2023-12-29T06:08:06;56.80;;;32.53;;
10731;SDS011;74907;42.812;23.216;2023-12-29T06:10:33;54.70;;;32.07;;
10731;SDS011;74907;42.812;23.216;2023-12-29T06:13:02;48.77;;;30.10;;
10731;SDS011;74907;42.812;23.216;2023-12-29T06:15:29;48.33;;;31.67;;
10731;SDS011;74907;42.812;23.216;2023-12-29T06:17:56;48.07;;;30.50;;
10731;SDS011;74907;42.812;23.216;2023-12-29T06:20:23;49.47;;;30.23;;
10731;SDS011;74907;42.812;23.216;2023-12-29T06:22:50;47.83;;;29.60;;
10731;SDS011;74907;42.812;23.216;2023-12-29T06:25:19;52.77;;;29.73;;
10731;SDS011;74907;42.812;23.216;2023-12-29T06:27:46;57.07;;;28.87;;
10731;SDS011;74907;42.812;23.216;2023-12-29T06:30:20;53.07;;;29.33;;
10731;SDS011;74907;42.812;23.216;2023-12-29T06:32:48;48.70;;;28.23;;
10731;SDS011;74907;42.812;23.216;2023-12-29T06:35:17;48.00;;;27.07;;
10731;SDS011;74907;42.812;23.216;2023-12-29T06:37:43;42.40;;;26.80;;
10731;SDS011;74907;42.812;23.216;2023-12-29T06:40:11;43.67;;;27.03;;
10731;SDS011;74907;42.812;23.216;2023-12-29T06:42:40;41.93;;;23.37;;
10731;SDS011;74907;42.812;23.216;2023-12-29T06:45:07;42.77;;;23.03;;
10731;SDS011;74907;42.812;23.216;2023-12-29T06:47:35;33.40;;;21.20;;
10731;SDS011;74907;42.812;23.216;2023-12-29T06:50:02;42.63;;;23.00;;
10731;SDS011;74907;42.812;23.216;2023-12-29T06:52:29;43.43;;;23.47;;
10731;SDS011;74907;42.812;23.216;2023-12-29T06:54:59;50.53;;;25.17;;
10731;SDS011;74907;42.812;23.216;2023-12-29T06:57:31;54.73;;;28.60;;
10731;SDS011;74907;42.812;23.216;2023-12-29T06:59:59;69.13;;;33.17;;
10731;SDS011;74907;42.812;23.216;2023-12-29T07:02:26;67.93;;;39.27;;
10731;SDS011;74907;42.812;23.216;2023-12-29T07:04:53;91.77;;;42.00;;
10731;SDS011;74907;42.812;23.216;2023-12-29T07:07:20;123.80;;;49.00;;
10731;SDS011;74907;42.812;23.216;2023-12-29T07:09:47;109.47;;;48.37;;
10731;SDS011;74907;42.812;23.216;2023-12-29T07:12:14;134.43;;;53.63;;
10731;SDS011;74907;42.812;23.216;2023-12-29T07:14:42;126.07;;;49.77;;
10731;SDS011;74907;42.812;23.216;2023-12-29T07:17:14;84.90;;;42.07;;
10731;SDS011;74907;42.812;23.216;2023-12-29T07:19:45;76.70;;;36.00;;
10731;SDS011;74907;42.812;23.216;2023-12-29T07:22:12;76.53;;;32.13;;
10731;SDS011;74907;42.812;23.216;2023-12-29T07:24:39;61.90;;;32.00;;
10731;SDS011;74907;42.812;23.216;2023-12-29T07:27:06;51.00;;;29.30;;
10731;SDS011;74907;42.812;23.216;2023-12-29T07:29:33;50.40;;;29.33;;
10731;SDS011;74907;42.812;23.216;2023-12-29T07:32:00;42.33;;;23.03;;
10731;SDS011;74907;42.812;23.216;2023-12-29T07:34:29;29.70;;;19.70;;
10731;SDS011;74907;42.812;23.216;2023-12-29T07:36:56;49.07;;;25.10;;
10731;SDS011;74907;42.812;23.216;2023-12-29T07:39:24;39.17;;;25.00;;
10731;SDS011;74907;42.812;23.216;2023-12-29T07:41:51;60.53;;;25.33;;
10731;SDS011;74907;42.812;23.216;2023-12-29T07:44:18;40.67;;;26.30;;
10731;SDS011;74907;42.812;23.216;2023-12-29T07:46:45;41.53;;;24.20;;
10731;SDS011;74907;42.812;23.216;2023-12-29T07:49:12;30.50;;;20.80;;
10731;SDS011;74907;42.812;23.216;2023-12-29T07:51:41;46.93;;;24.77;;
10731;SDS011;74907;42.812;23.216;2023-12-29T07:54:09;46.00;;;26.03;;
10731;SDS011;74907;42.812;23.216;2023-12-29T07:56:36;51.67;;;24.00;;
10731;SDS011;74907;42.812;23.216;2023-12-29T07:59:04;38.97;;;22.23;;
10731;SDS011;74907;42.812;23.216;2023-12-29T08:01:33;44.70;;;22.63;;
10731;SDS011;74907;42.812;23.216;2023-12-29T08:04:01;39.33;;;22.30;;
10731;SDS011;74907;42.812;23.216;2023-12-29T08:06:29;59.97;;;30.23;;
10731;SDS011;74907;42.812;23.216;2023-12-29T08:08:58;45.23;;;27.40;;
10731;SDS011;74907;42.812;23.216;2023-12-29T08:11:25;43.53;;;24.93;;
10731;SDS011;74907;42.812;23.216;2023-12-29T08:13:52;40.23;;;21.93;;
10731;SDS011;74907;42.812;23.216;2023-12-29T08:16:19;42.07;;;23.30;;
10731;SDS011;74907;42.812;23.216;2023-12-29T08:18:47;32.93;;;23.47;;
10731;SDS011;74907;42.812;23.216;2023-12-29T08:21:18;39.27;;;23.17;;
10731;SDS011;74907;42.812;23.216;2023-12-29T08:23:45;41.23;;;24.33;;
10731;SDS011;74907;42.812;23.216;2023-12-29T08:26:14;33.40;;;23.90;;
10731;SDS011;74907;42.812;23.216;2023-12-29T08:28:42;35.80;;;23.23;;
10731;SDS011;74907;42.812;23.216;2023-12-29T08:34:37;51.73;;;24.47;;
10731;SDS011;74907;42.812;23.216;2023-12-29T08:37:05;54.17;;;27.27;;
10731;SDS011;74907;42.812;23.216;2023-12-29T08:39:32;43.60;;;25.57;;
10731;SDS011;74907;42.812;23.216;2023-12-29T08:42:04;50.10;;;28.07;;
10731;SDS011;74907;42.812;23.216;2023-12-29T08:44:37;42.23;;;27.23;;
10731;SDS011;74907;42.812;23.216;2023-12-29T08:47:10;43.63;;;27.63;;
10731;SDS011;74907;42.812;23.216;2023-12-29T08:49:37;39.80;;;26.73;;
10731;SDS011;74907;42.812;23.216;2023-12-29T08:52:06;47.53;;;30.07;;
10731;SDS011;74907;42.812;23.216;2023-12-29T08:54:34;53.27;;;31.97;;
10731;SDS011;74907;42.812;23.216;2023-12-29T08:57:12;61.83;;;36.37;;
10731;SDS011;74907;42.812;23.216;2023-12-29T08:59:42;58.23;;;36.37;;
10731;SDS011;74907;42.812;23.216;2023-12-29T09:02:15;61.63;;;39.90;;
10731;SDS011;74907;42.812;23.216;2023-12-29T09:05:42;59.13;;;38.23;;
10731;SDS011;74907;42.812;23.216;2023-12-29T09:08:38;57.73;;;35.17;;
10731;SDS011;74907;42.812;23.216;2023-12-29T09:11:05;53.33;;;35.27;;
10731;SDS011;74907;42.812;23.216;2023-12-29T09:13:34;57.47;;;37.00;;
10731;SDS011;74907;42.812;23.216;2023-12-29T09:16:01;56.57;;;36.37;;
10731;SDS011;74907;42.812;23.216;2023-12-29T09:18:28;58.13;;;37.20;;
10731;SDS011;74907;42.812;23.216;2023-12-29T09:20:55;59.70;;;38.10;;
10731;SDS011;74907;42.812;23.216;2023-12-29T09:23:23;54.90;;;36.23;;
10731;SDS011;74907;42.812;23.216;2023-12-29T09:25:50;57.10;;;35.17;;
10731;SDS011;74907;42.812;23.216;2023-12-29T09:28:18;63.90;;;36.00;;
10731;SDS011;74907;42.812;23.216;2023-12-29T09:30:46;55.97;;;36.77;;
10731;SDS011;74907;42.812;23.216;2023-12-29T09:33:15;55.87;;;34.60;;
10731;SDS011;74907;42.812;23.216;2023-12-29T09:35:42;50.73;;;32.83;;
10731;SDS011;74907;42.812;23.216;2023-12-29T09:38:09;51.97;;;33.43;;
10731;SDS011;74907;42.812;23.216;2023-12-29T09:40:36;49.57;;;32.93;;
10731;SDS011;74907;42.812;23.216;2023-12-29T09:43:21;46.50;;;29.90;;
10731;SDS011;74907;42.812;23.216;2023-12-29T09:45:50;55.60;;;31.23;;
10731;SDS011;74907;42.812;23.216;2023-12-29T09:48:24;45.47;;;29.80;;
10731;SDS011;74907;42.812;23.216;2023-12-29T09:50:56;50.40;;;34.17;;
10731;SDS011;74907;42.812;23.216;2023-12-29T09:53:38;46.53;;;31.57;;
10731;SDS011;74907;42.812;23.216;2023-12-29T09:56:09;53.57;;;31.33;;
10731;SDS011;74907;42.812;23.216;2023-12-29T09:59:15;42.97;;;29.87;;
10731;SDS011;74907;42.812;23.216;2023-12-29T10:01:49;41.37;;;29.53;;
10731;SDS011;74907;42.812;23.216;2023-12-29T10:04:18;51.57;;;33.23;;
10731;SDS011;74907;42.812;23.216;2023-12-29T10:06:52;48.50;;;32.90;;
10731;SDS011;74907;42.812;23.216;2023-12-29T10:09:33;50.57;;;31.10;;
10731;SDS011;74907;42.812;23.216;2023-12-29T12:03:38;48.70;;;40.07;;
10731;SDS011;74907;42.812;23.216;2023-12-29T12:12:47;45.90;;;39.03;;
10731;SDS011;74907;42.812;23.216;2023-12-29T12:15:50;52.50;;;39.57;;
10731;SDS011;74907;42.812;23.216;2023-12-29T12:18:22;46.10;;;38.20;;
10731;SDS011;74907;42.812;23.216;2023-12-29T12:24:03;47.53;;;38.67;;
10731;SDS011;74907;42.812;23.216;2023-12-29T12:26:48;47.07;;;38.63;;
10731;SDS011;74907;42.812;23.216;2023-12-29T12:29:27;49.80;;;37.40;;
10731;SDS011;74907;42.812;23.216;2023-12-29T12:32:28;49.10;;;37.03;;
10731;SDS011;74907;42.812;23.216;2023-12-29T12:35:18;48.27;;;37.27;;
10731;SDS011;74907;42.812;23.216;2023-12-29T12:38:22;44.77;;;35.90;;
10731;SDS011;74907;42.812;23.216;2023-12-29T12:49:57;38.43;;;32.70;;
10731;SDS011;74907;42.812;23.216;2023-12-29T12:52:40;39.43;;;32.70;;
10731;SDS011;74907;42.812;23.216;2023-12-29T12:55:55;36.20;;;32.20;;
10731;SDS011;74907;42.812;23.216;2023-12-29T12:58:23;41.70;;;33.10;;
10731;SDS011;74907;42.812;23.216;2023-12-29T13:01:11;38.00;;;30.63;;
10731;SDS011;74907;42.812;23.216;2023-12-29T13:03:45;39.37;;;30.50;;
10731;SDS011;74907;42.812;23.216;2023-12-29T13:06:51;39.93;;;31.20;;
10731;SDS011;74907;42.812;23.216;2023-12-29T13:09:22;38.03;;;29.97;;
10731;SDS011;74907;42.812;23.216;2023-12-29T13:12:10;35.97;;;30.07;;
10731;SDS011;74907;42.812;23.216;2023-12-29T13:15:05;40.17;;;30.97;;
10731;SDS011;74907;42.812;23.216;2023-12-29T13:17:45;40.60;;;30.23;;
10731;SDS011;74907;42.812;23.216;2023-12-29T13:20:22;33.60;;;27.97;;
10731;SDS011;74907;42.812;23.216;2023-12-29T13:23:00;34.00;;;28.63;;
10731;SDS011;74907;42.812;23.216;2023-12-29T13:25:54;35.87;;;27.67;;
10731;SDS011;74907;42.812;23.216;2023-12-29T13:28:27;32.90;;;28.00;;
10731;SDS011;74907;42.812;23.216;2023-12-29T13:31:11;34.70;;;28.80;;
10731;SDS011;74907;42.812;23.216;2023-12-29T13:37:14;33.07;;;27.83;;
10731;SDS011;74907;42.812;23.216;2023-12-29T13:39:50;30.57;;;27.33;;
10731;SDS011;74907;42.812;23.216;2023-12-29T13:42:35;34.27;;;25.90;;
10731;SDS011;74907;42.812;23.216;2023-12-29T13:48:15;32.77;;;25.97;;
10731;SDS011;74907;42.812;23.216;2023-12-29T13:51:07;31.73;;;26.23;;
10731;SDS011;74907;42.812;23.216;2023-12-29T13:53:50;34.47;;;27.13;;
10731;SDS011;74907;42.812;23.216;2023-12-29T13:56:28;32.20;;;27.43;;
10731;SDS011;74907;42.812;23.216;2023-12-29T13:59:04;35.40;;;28.83;;
10731;SDS011;74907;42.812;23.216;2023-12-29T14:01:36;33.93;;;28.73;;
10731;SDS011;74907;42.812;23.216;2023-12-29T14:04:16;36.90;;;28.10;;
10731;SDS011;74907;42.812;23.216;2023-12-29T14:06:50;32.87;;;27.63;;
10731;SDS011;74907;42.812;23.216;2023-12-29T14:12:27;33.97;;;28.93;;
10731;SDS011;74907;42.812;23.216;2023-12-29T14:15:02;33.70;;;27.93;;
10731;SDS011;74907;42.812;23.216;2023-12-29T14:17:48;32.43;;;27.50;;
10731;SDS011;74907;42.812;23.216;2023-12-29T14:23:06;35.30;;;29.03;;
10731;SDS011;74907;42.812;23.216;2023-12-29T14:25:40;33.83;;;28.17;;
10731;SDS011;74907;42.812;23.216;2023-12-29T14:28:13;32.83;;;28.30;;
10731;SDS011;74907;42.812;23.216;2023-12-29T14:30:43;33.37;;;27.00;;
10731;SDS011;74907;42.812;23.216;2023-12-29T14:33:16;38.10;;;27.00;;
10731;SDS011;74907;42.812;23.216;2023-12-29T14:39:00;30.97;;;26.17;;
10731;SDS011;74907;42.812;23.216;2023-12-29T14:41:47;30.93;;;26.77;;
10731;SDS011;74907;42.812;23.216;2023-12-29T14:44:19;31.47;;;26.63;;
10731;SDS011;74907;42.812;23.216;2023-12-29T14:47:03;33.43;;;26.73;;
10731;SDS011;74907;42.812;23.216;2023-12-29T14:50:04;30.83;;;27.50;;
10731;SDS011;74907;42.812;23.216;2023-12-29T14:53:11;34.57;;;27.13;;
10731;SDS011;74907;42.812;23.216;2023-12-29T14:55:43;33.93;;;27.30;;
10731;SDS011;74907;42.812;23.216;2023-12-29T14:58:44;34.50;;;28.77;;
10731;SDS011;74907;42.812;23.216;2023-12-29T15:01:17;37.90;;;29.40;;
10731;SDS011;74907;42.812;23.216;2023-12-29T15:07:25;36.00;;;29.87;;
10731;SDS011;74907;42.812;23.216;2023-12-29T15:10:29;58.80;;;37.33;;
10731;SDS011;74907;42.812;23.216;2023-12-29T15:19:40;70.87;;;52.43;;
10731;SDS011;74907;42.812;23.216;2023-12-29T15:22:08;48.90;;;38.17;;
10731;SDS011;74907;42.812;23.216;2023-12-29T15:24:38;48.03;;;36.17;;
10731;SDS011;74907;42.812;23.216;2023-12-29T15:27:09;49.30;;;37.33;;
10731;SDS011;74907;42.812;23.216;2023-12-29T15:29:55;54.83;;;43.37;;
10731;SDS011;74907;42.812;23.216;2023-12-29T15:52:57;22.60;;;17.57;;
10731;SDS011;74907;42.812;23.216;2023-12-29T15:55:52;20.57;;;15.30;;
10731;SDS011;74907;42.812;23.216;2023-12-29T15:58:28;20.20;;;14.43;;
10731;SDS011;74907;42.812;23.216;2023-12-29T16:04:17;17.90;;;13.40;;
10731;SDS011;74907;42.812;23.216;2023-12-29T16:07:27;16.80;;;13.80;;
10731;SDS011;74907;42.812;23.216;2023-12-29T16:10:24;18.17;;;14.40;;
10731;SDS011;74907;42.812;23.216;2023-12-29T16:13:06;22.67;;;16.13;;
10731;SDS011;74907;42.812;23.216;2023-12-29T16:15:50;27.00;;;16.77;;
10731;SDS011;74907;42.812;23.216;2023-12-29T16:18:35;26.33;;;21.50;;
10731;SDS011;74907;42.812;23.216;2023-12-29T16:21:23;27.23;;;23.23;;
10731;SDS011;74907;42.812;23.216;2023-12-29T17:03:05;27.50;;;21.17;;
10731;SDS011;74907;42.812;23.216;2023-12-29T17:06:07;32.03;;;22.13;;
10731;SDS011;74907;42.812;23.216;2023-12-29T17:09:23;30.53;;;21.83;;
10731;SDS011;74907;42.812;23.216;2023-12-29T17:12:21;23.13;;;18.17;;
10731;SDS011;74907;42.812;23.216;2023-12-29T17:14:53;21.20;;;17.27;;
10731;SDS011;74907;42.812;23.216;2023-12-29T17:17:32;20.43;;;16.73;;
10731;SDS011;74907;42.812;23.216;2023-12-29T17:20:12;22.40;;;19.10;;
10731;SDS011;74907;42.812;23.216;2023-12-29T17:22:51;29.20;;;21.50;;
10731;SDS011;74907;42.812;23.216;2023-12-29T17:26:08;30.90;;;23.53;;
10731;SDS011;74907;42.812;23.216;2023-12-29T17:29:23;34.23;;;23.40;;
10731;SDS011;74907;42.812;23.216;2023-12-29T17:56:20;55.00;;;37.63;;
10731;SDS011;74907;42.812;23.216;2023-12-29T17:58:51;57.03;;;39.57;;
10731;SDS011;74907;42.812;23.216;2023-12-29T18:05:14;60.90;;;39.17;;
10731;SDS011;74907;42.812;23.216;2023-12-29T18:14:18;60.57;;;42.00;;
10731;SDS011;74907;42.812;23.216;2023-12-29T18:38:33;68.00;;;49.37;;
10731;SDS011;74907;42.812;23.216;2023-12-29T18:41:55;64.83;;;48.00;;
10731;SDS011;74907;42.812;23.216;2023-12-29T18:45:33;77.60;;;54.20;;
10731;SDS011;74907;42.812;23.216;2023-12-29T19:15:32;60.57;;;42.90;;
10731;SDS011;74907;42.812;23.216;2023-12-29T19:18:47;55.60;;;38.43;;
10731;SDS011;74907;42.812;23.216;2023-12-29T19:22:06;46.23;;;34.93;;
10731;SDS011;74907;42.812;23.216;2023-12-29T19:25:15;47.50;;;34.03;;
10731;SDS011;74907;42.812;23.216;2023-12-29T19:34:59;54.23;;;38.10;;
10731;SDS011;74907;42.812;23.216;2023-12-29T19:37:51;51.67;;;36.30;;
10731;SDS011;74907;42.812;23.216;2023-12-29T19:41:04;94.43;;;52.63;;
10731;SDS011;74907;42.812;23.216;2023-12-29T19:44:14;56.23;;;40.03;;
10731;SDS011;74907;42.812;23.216;2023-12-29T19:51:17;64.80;;;42.23;;
10731;SDS011;74907;42.812;23.216;2023-12-29T19:54:14;77.03;;;49.43;;
10731;SDS011;74907;42.812;23.216;2023-12-29T19:57:19;74.90;;;47.83;;
10731;SDS011;74907;42.812;23.216;2023-12-29T20:03:13;75.17;;;47.43;;
10731;SDS011;74907;42.812;23.216;2023-12-29T20:43:08;48.33;;;35.10;;
10731;SDS011;74907;42.812;23.216;2023-12-29T20:46:10;56.90;;;38.53;;
10731;SDS011;74907;42.812;23.216;2023-12-29T21:16:00;53.33;;;39.73;;
10731;SDS011;74907;42.812;23.216;2023-12-29T21:18:41;60.23;;;42.30;;
10731;SDS011;74907;42.812;23.216;2023-12-29T21:21:25;63.37;;;44.47;;
10731;SDS011;74907;42.812;23.216;2023-12-29T23:05:15;104.37;;;61.93;;
10731;SDS011;74907;42.812;23.216;2023-12-29T23:08:10;99.87;;;60.73;;
10731;SDS011;74907;42.812;23.216;2023-12-29T23:14:33;131.93;;;80.73;;
10731;SDS011;74907;42.812;23.216;2023-12-29T23:20:25;97.83;;;60.70;;